createdAt,value
2018-09-01T00:01:01.708Z,1.97
2018-09-01T00:07:06.717Z,2.00
2018-09-01T00:13:12.206Z,2.00
2018-09-01T00:19:17.005Z,2.43
2018-09-01T00:25:21.726Z,2.23
2018-09-01T00:31:26.391Z,2.00
2018-09-01T00:37:36.633Z,2.47
2018-09-01T00:43:42.125Z,2.93
2018-09-01T00:49:47.606Z,2.10
2018-09-01T00:55:52.298Z,2.70
2018-09-01T01:01:57.038Z,2.40
2018-09-01T01:08:02.202Z,2.53
2018-09-01T01:14:06.867Z,1.90
2018-09-01T01:20:12.280Z,2.10
2018-09-01T01:26:17.261Z,2.27
2018-09-01T01:32:22.118Z,2.37
2018-09-01T01:38:26.860Z,2.67
2018-09-01T01:44:32.045Z,2.40
2018-09-01T01:50:36.853Z,2.80
2018-09-01T01:56:42.447Z,2.33
2018-09-01T02:02:47.806Z,2.43
2018-09-01T02:08:52.628Z,2.30
2018-09-01T02:14:57.500Z,2.60
2018-09-01T02:21:02.257Z,2.50
2018-09-01T02:27:07.485Z,2.20
2018-09-01T02:33:13.596Z,2.47
2018-09-01T02:39:18.319Z,2.40
2018-09-01T02:45:23.130Z,2.57
2018-09-01T02:51:27.833Z,1.97
2018-09-01T02:57:32.664Z,2.50
2018-09-01T03:03:37.440Z,3.10
2018-09-01T03:09:42.242Z,2.40
2018-09-01T03:15:47.448Z,2.60
2018-09-01T03:21:53.368Z,2.70
2018-09-01T03:27:58.225Z,2.93
2018-09-01T03:34:03.282Z,2.60
2018-09-01T03:40:08.701Z,1.90
2018-09-01T03:46:14.303Z,2.47
2018-09-01T03:52:19.116Z,3.00
2018-09-01T03:58:25.388Z,2.17
2018-09-01T04:04:30.362Z,2.40
2018-09-01T04:10:35.212Z,3.10
2018-09-01T04:16:41.931Z,2.43
2018-09-01T04:22:46.943Z,3.17
2018-09-01T04:28:51.639Z,3.10
2018-09-01T04:34:56.755Z,2.23
2018-09-01T04:41:01.647Z,3.20
2018-09-01T04:47:06.506Z,2.53
2018-09-01T04:53:12.088Z,2.90
2018-09-01T04:59:17.295Z,3.30
2018-09-01T05:05:22.034Z,4.20
2018-09-01T05:11:27.168Z,3.33
2018-09-01T05:17:32.335Z,4.00
2018-09-01T05:23:37.110Z,3.10
2018-09-01T05:29:43.030Z,2.80
2018-09-01T05:35:48.301Z,3.23
2018-09-01T05:41:53.111Z,4.23
2018-09-01T05:47:57.884Z,3.60
2018-09-01T05:54:03.069Z,3.53
2018-09-01T06:00:09.769Z,4.47
2018-09-01T06:06:14.793Z,4.00
2018-09-01T06:12:19.686Z,4.50
2018-09-01T06:18:24.492Z,3.90
2018-09-01T06:24:29.282Z,3.90
2018-09-01T06:30:36.260Z,4.57
2018-09-01T06:36:42.313Z,3.63
2018-09-01T06:42:47.626Z,3.20
2018-09-01T06:48:52.665Z,3.27
2018-09-01T06:54:57.410Z,2.70
2018-09-01T07:01:02.209Z,2.53
2018-09-01T07:07:06.933Z,2.70
2018-09-01T07:13:13.479Z,2.90
2018-09-01T07:19:18.396Z,2.70
2018-09-01T07:25:23.316Z,3.63
2018-09-01T07:31:28.725Z,2.87
2018-09-01T07:37:34.037Z,3.27
2018-09-01T07:43:39.118Z,3.70
2018-09-01T07:49:44.520Z,3.47
2018-09-01T07:55:49.806Z,3.20
2018-09-01T08:01:54.552Z,2.93
2018-09-01T08:07:59.569Z,3.77
2018-09-01T08:14:04.539Z,2.10
2018-09-01T08:20:10.561Z,2.30
2018-09-01T08:26:16.476Z,1.90
2018-09-01T08:32:22.037Z,2.63
2018-09-01T08:38:27.056Z,2.30
2018-09-01T08:44:31.726Z,2.60
2018-09-01T08:50:36.581Z,2.10
2018-09-01T08:56:42.753Z,2.03
2018-09-01T09:02:47.801Z,2.10
2018-09-01T09:08:52.670Z,2.00
2018-09-01T09:14:57.445Z,2.07
2018-09-01T09:21:02.703Z,2.10
2018-09-01T09:27:09.387Z,2.57
2018-09-01T09:33:14.854Z,2.17
2018-09-01T09:39:19.565Z,1.80
2018-09-01T09:45:24.837Z,2.30
2018-09-01T09:51:29.812Z,1.90
2018-09-01T09:57:34.825Z,1.63
2018-09-01T10:03:40.709Z,2.20
2018-09-01T10:09:46.038Z,1.60
2018-09-01T10:15:50.813Z,2.27
2018-09-01T10:21:56.178Z,2.10
2018-09-01T10:28:00.953Z,2.40
2018-09-01T10:34:06.145Z,2.17
2018-09-01T10:40:12.082Z,1.90
2018-09-01T10:46:17.458Z,1.87
2018-09-01T10:52:22.243Z,2.43
2018-09-01T10:58:27.019Z,2.10
2018-09-01T11:04:32.181Z,1.97
2018-09-01T11:10:37.102Z,2.27
2018-09-01T11:16:43.122Z,2.20
2018-09-01T11:22:48.101Z,2.53
2018-09-01T11:28:52.953Z,2.40
2018-09-01T11:34:57.936Z,2.60
2018-09-01T11:41:02.850Z,2.07
2018-09-01T11:47:07.687Z,2.07
2018-09-01T11:53:12.874Z,2.13
2018-09-01T11:59:17.920Z,2.37
2018-09-01T12:05:23.014Z,1.93
2018-09-01T12:11:27.798Z,3.03
2018-09-01T12:17:32.468Z,2.50
2018-09-01T12:23:37.441Z,2.33
2018-09-01T12:29:42.590Z,2.30
2018-09-01T12:35:47.351Z,2.50
2018-09-01T12:41:52.412Z,2.53
2018-09-01T12:47:57.113Z,2.10
2018-09-01T12:54:02.050Z,2.33
2018-09-01T13:00:07.705Z,2.50
2018-09-01T13:06:13.982Z,2.47
2018-09-01T13:12:19.038Z,2.90
2018-09-01T13:18:24.019Z,3.00
2018-09-01T13:24:29.081Z,2.40
2018-09-01T13:30:34.220Z,2.60
2018-09-01T13:36:39.060Z,3.07
2018-09-01T13:42:44.280Z,3.17
2018-09-01T13:48:49.286Z,2.90
2018-09-01T13:54:54.952Z,2.50
2018-09-01T14:00:59.892Z,2.73
2018-09-01T14:07:04.909Z,2.57
2018-09-01T14:13:11.549Z,3.00
2018-09-01T14:19:16.934Z,3.33
2018-09-01T14:25:21.864Z,2.30
2018-09-01T14:31:26.726Z,3.33
2018-09-01T14:37:31.896Z,2.90
2018-09-01T14:43:36.634Z,2.40
2018-09-01T14:49:44.064Z,2.60
2018-09-01T14:55:48.859Z,3.77
2018-09-01T15:01:53.866Z,3.00
2018-09-01T15:07:58.737Z,2.33
2018-09-01T15:14:04.028Z,3.00
2018-09-01T15:20:09.645Z,2.57
2018-09-01T15:26:14.924Z,2.80
2018-09-01T15:32:19.852Z,2.30
2018-09-01T15:38:24.566Z,2.30
2018-09-01T15:44:29.397Z,2.40
2018-09-01T15:50:34.265Z,2.70
2018-09-01T15:56:39.348Z,3.00
2018-09-01T16:02:44.419Z,2.20
2018-09-01T16:08:49.175Z,2.83
2018-09-01T16:14:54.044Z,2.67
2018-09-01T16:20:58.799Z,3.00
2018-09-01T16:27:03.645Z,2.60
2018-09-01T16:33:09.077Z,2.10
2018-09-01T16:39:14.693Z,2.57
2018-09-01T16:45:19.919Z,2.57
2018-09-01T16:51:24.951Z,2.87
2018-09-01T16:57:29.797Z,2.60
2018-09-01T17:03:34.539Z,2.50
2018-09-01T17:09:39.597Z,2.70
2018-09-01T17:15:45.308Z,3.00
2018-09-01T17:21:50.220Z,2.63
2018-09-01T17:27:55.423Z,2.87
2018-09-01T17:34:00.141Z,2.70
2018-09-01T17:40:05.129Z,2.60
2018-09-01T17:46:09.884Z,3.00
2018-09-01T17:52:15.375Z,3.30
2018-09-01T17:58:20.319Z,3.80
2018-09-01T18:04:25.312Z,3.30
2018-09-01T18:10:30.111Z,3.00
2018-09-01T18:16:34.840Z,3.13
2018-09-01T18:22:39.854Z,2.80
2018-09-01T18:37:10.499Z,2.80
2018-09-01T18:43:16.791Z,2.70
2018-09-01T18:49:21.954Z,2.83
2018-09-01T18:55:26.874Z,2.50
2018-09-01T19:01:32.051Z,2.47
2018-09-01T19:07:37.063Z,2.87
2018-09-01T19:13:43.625Z,3.10
2018-09-01T19:19:48.560Z,2.93
2018-09-01T19:25:53.351Z,2.60
2018-09-01T19:31:58.157Z,2.93
2018-09-01T19:38:03.027Z,2.50
2018-09-01T19:44:07.812Z,2.70
2018-09-01T19:50:13.272Z,3.07
2018-09-01T19:56:18.608Z,2.63
2018-09-01T20:02:23.576Z,2.60
2018-09-01T20:08:28.428Z,2.87
2018-09-01T20:14:33.513Z,3.27
2018-09-01T20:20:39.542Z,2.87
2018-09-01T20:26:44.709Z,2.40
2018-09-01T20:32:49.931Z,3.20
2018-09-01T20:38:54.714Z,3.10
2018-09-01T20:44:59.593Z,3.00
2018-09-01T20:51:04.515Z,2.77
2018-09-01T20:57:10.588Z,2.90
2018-09-01T21:03:17.052Z,2.50
2018-09-01T21:09:22.377Z,3.47
2018-09-01T21:15:27.445Z,3.20
2018-09-01T21:21:32.490Z,2.90
2018-09-01T21:27:37.730Z,3.33
2018-09-01T21:33:43.738Z,3.57
2018-09-01T21:39:48.784Z,3.00
2018-09-01T21:45:53.765Z,2.90
2018-09-01T21:51:59.403Z,3.20
2018-09-01T21:58:04.261Z,2.70
2018-09-01T22:04:10.146Z,3.10
2018-09-01T22:10:16.016Z,3.40
2018-09-01T22:16:20.814Z,3.33
2018-09-01T22:22:25.599Z,3.40
2018-09-01T22:28:30.987Z,2.93
2018-09-01T22:34:36.040Z,3.73
2018-09-01T22:40:42.607Z,3.27
2018-09-01T22:46:55.304Z,3.17
2018-09-01T22:52:59.996Z,2.80
2018-09-01T22:59:04.830Z,2.87
2018-09-01T23:05:11.036Z,3.20
2018-09-01T23:11:16.606Z,3.03
2018-09-01T23:17:21.468Z,3.17
2018-09-01T23:23:26.768Z,3.20
2018-09-01T23:29:31.719Z,3.63
2018-09-01T23:35:36.734Z,3.30
2018-09-01T23:41:42.034Z,3.00
2018-09-01T23:47:47.966Z,2.90
2018-09-01T23:53:53.109Z,2.73
2018-09-01T23:59:57.859Z,3.37
